Delta Virtual Airport Information Service

Portland International Jetport

ICAO: KPWM Country: United States
Latitude: 43.6462 Longitude: -70.3092
Latest Arrival : DAC88 (KMHT-KPWM) Latest Departure : DAC88 (KPWM-KMHT)


WX CaptureLIVE
Data provided by noaa.gov | Fetched at 17:47:30

METAR : KPWM 062151Z 27006KT 10SM FEW045 FEW200 27/11 A3007 RMK AO2 SLP181 T02720111

TAF : KPWM 061739Z 0618/0718 27009G15KT P6SM FEW050 FM062200 28005KT P6SM SKC FM070600 VRB03KT P6SM SKC FM071400 VRB04KT P6SM SCT250


Runway Data for KPWM
Data provided by openaviationdata.com

Runway ID Mag Var Hdg Length Elevation Surface ILS Freq ILS Id ILS Slope
11 -17 112° 7188 ft 36 ft Asphalt 109.9 IPWM 3
18 -17 180° 5000 ft 36 ft Asphalt -- -- --
29 -17 292° 7188 ft 36 ft Asphalt 109.9 IGCS 3
36 -17 5000 ft 36 ft Asphalt -- -- --

Portland International Jetport, United States
Use only for reference purposes



Not for navigational purposes.